createdAt,value
2018-10-02T00:00:21.382Z,76.04
2018-10-02T00:01:21.346Z,77.06
2018-10-02T00:02:21.349Z,78.09
2018-10-02T00:03:21.323Z,76.79
2018-10-02T00:04:21.320Z,76.86
2018-10-02T00:05:21.325Z,77.20
2018-10-02T00:06:21.294Z,76.14
2018-10-02T00:07:21.323Z,76.45
2018-10-02T00:08:21.271Z,76.82
2018-10-02T00:09:21.259Z,75.49
2018-10-02T00:10:21.273Z,74.98
2018-10-02T00:11:21.235Z,74.87
2018-10-02T00:12:21.240Z,75.70
2018-10-02T00:13:21.225Z,75.70
2018-10-02T00:14:21.202Z,75.80
2018-10-02T00:15:21.225Z,75.80
2018-10-02T00:16:21.181Z,75.08
2018-10-02T00:17:21.170Z,75.29
2018-10-02T00:18:21.157Z,75.80
2018-10-02T00:19:21.153Z,76.17
2018-10-02T00:20:21.164Z,74.26
2018-10-02T00:21:21.127Z,75.70
2018-10-02T00:22:21.114Z,74.26
2018-10-02T00:23:21.101Z,75.49
2018-10-02T00:24:21.090Z,76.04
2018-10-02T00:25:21.128Z,76.38
2018-10-02T00:26:21.069Z,74.53
2018-10-02T00:27:21.060Z,74.98
2018-10-02T00:28:21.052Z,75.87
2018-10-02T00:29:21.040Z,75.04
2018-10-02T00:30:21.046Z,75.49
2018-10-02T00:31:21.044Z,74.77
2018-10-02T00:32:21.294Z,75.66
2018-10-02T00:33:20.990Z,74.74
2018-10-02T00:34:20.978Z,75.04
2018-10-02T00:35:20.993Z,75.04
2018-10-02T00:36:20.957Z,73.71
2018-10-02T00:37:20.961Z,74.63
2018-10-02T00:38:20.935Z,74.63
2018-10-02T00:39:20.926Z,74.53
2018-10-02T00:40:20.946Z,74.57
2018-10-02T00:41:20.903Z,74.57
2018-10-02T00:42:20.892Z,75.70
2018-10-02T00:43:20.887Z,75.08
2018-10-02T00:44:20.866Z,75.08
2018-10-02T00:45:20.881Z,75.56
2018-10-02T00:46:20.849Z,75.15
2018-10-02T00:47:20.834Z,74.12
2018-10-02T00:48:20.824Z,75.97
2018-10-02T00:49:20.822Z,75.18
2018-10-02T00:50:20.833Z,76.72
2018-10-02T00:51:20.790Z,77.55
2018-10-02T00:52:20.779Z,78.20
2018-10-02T00:53:20.770Z,79.43
2018-10-02T00:54:20.755Z,78.30
2018-10-02T00:55:20.765Z,79.33
2018-10-02T00:56:20.743Z,79.53
2018-10-02T00:57:20.734Z,80.56
2018-10-02T00:58:20.712Z,79.12
2018-10-02T00:59:20.705Z,80.83
2018-10-02T01:00:20.712Z,79.39
2018-10-02T01:01:20.683Z,79.39
2018-10-02T01:02:20.677Z,80.05
2018-10-02T01:03:20.656Z,79.49
2018-10-02T01:04:20.647Z,79.80
2018-10-02T01:05:20.657Z,80.05
2018-10-02T01:06:20.643Z,81.18
2018-10-02T01:07:20.612Z,80.25
2018-10-02T01:08:20.616Z,79.91
2018-10-02T01:09:20.589Z,78.47
2018-10-02T01:10:20.589Z,79.74
2018-10-02T01:11:20.595Z,81.07
2018-10-02T01:12:20.559Z,80.77
2018-10-02T01:13:20.544Z,79.94
2018-10-02T01:14:20.559Z,79.74
2018-10-02T01:15:20.545Z,80.46
2018-10-02T01:16:20.533Z,80.19
2018-10-02T01:17:20.500Z,80.19
2018-10-02T01:18:20.490Z,79.98
2018-10-02T01:19:20.479Z,81.21
2018-10-02T01:20:20.474Z,79.98
2018-10-02T01:21:20.476Z,79.88
2018-10-02T01:22:20.451Z,79.47
2018-10-02T01:23:20.437Z,79.36
2018-10-02T01:24:20.425Z,79.05
2018-10-02T01:25:20.416Z,79.77
2018-10-02T01:26:20.464Z,79.47
2018-10-02T01:27:20.392Z,78.96
2018-10-02T01:28:20.379Z,78.81
2018-10-02T01:29:20.371Z,78.92
2018-10-02T01:30:20.355Z,78.09
2018-10-02T01:31:20.366Z,77.89
2018-10-02T01:32:20.408Z,78.57
2018-10-02T01:33:20.322Z,78.47
2018-10-02T01:34:20.313Z,77.85
2018-10-02T01:35:20.315Z,77.95
2018-10-02T01:36:20.311Z,77.95
2018-10-02T01:37:20.277Z,78.78
2018-10-02T01:38:20.280Z,78.09
2018-10-02T01:39:20.256Z,77.99
2018-10-02T01:40:20.246Z,78.61
2018-10-02T01:41:20.258Z,78.85
2018-10-02T01:42:20.222Z,78.75
2018-10-02T01:43:20.219Z,79.05
2018-10-02T01:44:20.212Z,78.96
2018-10-02T01:45:20.190Z,79.57
2018-10-02T01:46:20.201Z,79.47
2018-10-02T01:47:20.165Z,79.26
2018-10-02T01:48:20.162Z,80.29
2018-10-02T01:49:20.145Z,79.57
2018-10-02T01:50:20.136Z,78.85
2018-10-02T01:51:20.156Z,79.05
2018-10-02T01:52:20.116Z,79.05
2018-10-02T01:53:20.103Z,78.85
2018-10-02T01:54:20.102Z,79.16
2018-10-02T01:55:20.081Z,78.75
2018-10-02T01:56:20.093Z,78.85
2018-10-02T01:57:20.055Z,79.98
2018-10-02T01:58:20.045Z,79.36
2018-10-02T01:59:20.035Z,79.84
2018-10-02T02:00:20.050Z,79.53
2018-10-02T02:01:20.045Z,79.70
2018-10-02T02:02:20.002Z,77.89
2018-10-02T02:03:19.989Z,78.61
2018-10-02T02:04:19.989Z,80.25
2018-10-02T02:05:19.969Z,78.78
2018-10-02T02:06:19.982Z,79.02
2018-10-02T02:07:19.958Z,78.92
2018-10-02T02:08:19.933Z,79.22
2018-10-02T02:09:19.922Z,79.77
2018-10-02T02:10:19.912Z,80.05
2018-10-02T02:11:19.952Z,79.98
2018-10-02T02:12:19.892Z,80.35
2018-10-02T02:13:19.909Z,78.20
2018-10-02T02:14:19.866Z,78.30
2018-10-02T02:15:19.858Z,78.09
2018-10-02T02:16:19.867Z,78.09
2018-10-02T02:17:19.834Z,78.81
2018-10-02T02:18:19.821Z,78.81
2018-10-02T02:19:19.815Z,78.71
2018-10-02T02:20:19.798Z,78.71
2018-10-02T02:21:19.811Z,78.71
2018-10-02T02:22:19.776Z,79.36
2018-10-02T02:23:19.769Z,79.22
2018-10-02T02:24:19.767Z,78.09
2018-10-02T02:25:19.764Z,78.20
2018-10-02T02:26:19.753Z,78.61
2018-10-02T02:27:19.726Z,78.92
2018-10-02T02:28:19.712Z,79.05
2018-10-02T02:29:19.700Z,78.23
2018-10-02T02:30:19.688Z,78.33
2018-10-02T02:31:19.710Z,79.57
2018-10-02T02:32:19.664Z,78.85
2018-10-02T02:33:19.656Z,79.47
2018-10-02T02:34:19.643Z,79.16
2018-10-02T02:35:19.630Z,79.26
2018-10-02T02:36:19.642Z,79.63
2018-10-02T02:37:19.610Z,78.30
2018-10-02T02:38:19.602Z,78.40
2018-10-02T02:39:19.596Z,78.23
2018-10-02T02:40:19.577Z,79.05
2018-10-02T02:41:19.565Z,79.05
2018-10-02T02:42:19.582Z,78.33
2018-10-02T02:43:19.551Z,78.71
2018-10-02T02:44:19.532Z,78.64
2018-10-02T02:45:19.521Z,79.05
2018-10-02T02:46:19.508Z,79.98
2018-10-02T02:47:19.521Z,78.64
2018-10-02T02:48:19.486Z,79.02
2018-10-02T02:49:19.496Z,78.92
2018-10-02T02:50:19.480Z,77.89
2018-10-02T02:51:19.460Z,79.43
2018-10-02T02:52:19.465Z,77.89
2018-10-02T02:53:19.432Z,78.16
2018-10-02T02:54:19.421Z,77.85
2018-10-02T02:55:19.418Z,77.85
2018-10-02T02:56:19.400Z,76.82
2018-10-02T02:57:19.411Z,77.85
2018-10-02T02:58:19.378Z,77.44
2018-10-02T02:59:19.366Z,78.06
2018-10-02T03:00:19.363Z,77.55
2018-10-02T03:01:19.350Z,76.62
2018-10-02T03:02:19.355Z,76.51
2018-10-02T03:03:19.323Z,77.95
2018-10-02T03:04:19.310Z,76.00
2018-10-02T03:05:19.301Z,76.21
2018-10-02T03:06:19.287Z,77.34
2018-10-02T03:07:19.312Z,77.75
2018-10-02T03:08:19.264Z,76.62
2018-10-02T03:09:19.918Z,77.85
2018-10-02T03:10:19.241Z,77.68
2018-10-02T03:11:19.231Z,74.77
2018-10-02T03:12:19.244Z,76.45
2018-10-02T03:13:19.246Z,75.21
2018-10-02T03:14:19.197Z,75.59
2018-10-02T03:15:19.190Z,75.28
2018-10-02T03:16:19.177Z,75.52
2018-10-02T03:17:19.187Z,76.58
2018-10-02T03:18:19.157Z,75.93
2018-10-02T03:19:19.150Z,75.42
2018-10-02T03:20:19.136Z,75.87
2018-10-02T03:21:19.124Z,76.17
2018-10-02T03:22:19.131Z,75.45
2018-10-02T03:23:19.098Z,76.38
2018-10-02T03:24:19.098Z,77.61
2018-10-02T03:25:19.079Z,76.72
2018-10-02T03:26:19.070Z,77.13
2018-10-02T03:27:19.076Z,77.06
2018-10-02T03:28:19.043Z,77.89
2018-10-02T03:29:19.035Z,77.78
2018-10-02T03:30:19.021Z,77.99
2018-10-02T03:31:19.008Z,78.13
2018-10-02T03:32:19.028Z,78.13
2018-10-02T03:33:18.992Z,77.62
2018-10-02T03:34:18.980Z,78.13
2018-10-02T03:35:18.966Z,78.23
2018-10-02T03:36:18.952Z,78.13
2018-10-02T03:37:18.964Z,78.44
2018-10-02T03:38:18.940Z,78.23
2018-10-02T03:39:18.938Z,77.62
2018-10-02T03:40:18.917Z,78.50
2018-10-02T03:41:18.905Z,77.37
2018-10-02T03:42:18.915Z,76.76
2018-10-02T03:43:18.876Z,77.37
2018-10-02T03:44:18.864Z,77.78
2018-10-02T03:45:18.861Z,76.76
2018-10-02T03:46:18.863Z,76.35
2018-10-02T03:47:18.858Z,76.97
2018-10-02T03:48:18.819Z,76.76
2018-10-02T03:49:18.809Z,76.35
2018-10-02T03:50:18.798Z,77.48
2018-10-02T03:51:18.788Z,76.76
2018-10-02T03:52:18.802Z,78.09
2018-10-02T03:53:18.764Z,76.48
2018-10-02T03:54:18.767Z,77.82
2018-10-02T03:55:18.744Z,77.58
2018-10-02T03:56:18.730Z,76.45
2018-10-02T03:57:18.744Z,75.93
2018-10-02T03:58:18.712Z,76.65
2018-10-02T03:59:18.698Z,76.65
2018-10-02T04:00:18.687Z,77.99
2018-10-02T04:01:18.676Z,77.58
2018-10-02T04:02:18.689Z,76.21
2018-10-02T04:03:18.711Z,77.48
2018-10-02T04:04:18.649Z,77.89
2018-10-02T04:05:18.630Z,77.89
2018-10-02T04:06:18.623Z,77.48
2018-10-02T04:07:18.630Z,77.65
2018-10-02T04:08:18.601Z,76.62
2018-10-02T04:09:18.588Z,76.97
2018-10-02T04:10:18.604Z,76.65
2018-10-02T04:11:18.564Z,77.27
2018-10-02T04:12:18.579Z,77.06
2018-10-02T04:13:18.612Z,76.35
2018-10-02T04:14:18.536Z,76.45
2018-10-02T04:15:18.518Z,76.65
2018-10-02T04:16:18.525Z,76.55
2018-10-02T04:17:18.526Z,76.42
2018-10-02T04:18:18.485Z,76.72
2018-10-02T04:19:18.476Z,76.10
2018-10-02T04:20:18.465Z,75.15
2018-10-02T04:21:18.453Z,75.70
2018-10-02T04:22:18.480Z,76.21
2018-10-02T04:23:18.452Z,75.66
2018-10-02T04:24:18.420Z,74.77
2018-10-02T04:25:18.409Z,75.59
2018-10-02T04:26:18.400Z,74.98
2018-10-02T04:27:18.391Z,75.70
2018-10-02T04:28:18.453Z,75.70
2018-10-02T04:29:18.365Z,75.70
2018-10-02T04:30:18.352Z,75.21
2018-10-02T04:31:18.347Z,74.50
2018-10-02T04:32:18.334Z,75.52
2018-10-02T04:33:18.349Z,75.21
2018-10-02T04:34:18.383Z,75.01
2018-10-02T04:35:18.298Z,74.80
2018-10-02T04:36:18.287Z,75.83
2018-10-02T04:37:18.274Z,75.32
2018-10-02T04:38:18.299Z,75.08
2018-10-02T04:39:18.291Z,74.70
2018-10-02T04:40:18.251Z,74.98
2018-10-02T04:41:18.234Z,74.67
2018-10-02T04:42:18.219Z,75.08
2018-10-02T04:43:18.237Z,74.29
2018-10-02T04:44:18.196Z,73.81
2018-10-02T04:45:18.185Z,73.71
2018-10-02T04:46:18.184Z,75.11
2018-10-02T04:47:18.180Z,73.47
2018-10-02T04:48:18.182Z,73.06
2018-10-02T04:49:18.142Z,72.58
2018-10-02T04:50:18.133Z,73.81
2018-10-02T04:51:18.120Z,74.02
2018-10-02T04:52:18.108Z,74.02
2018-10-02T04:53:18.123Z,74.36
2018-10-02T04:54:18.090Z,73.95
2018-10-02T04:55:18.090Z,74.36
2018-10-02T04:56:18.123Z,74.36
2018-10-02T04:57:18.052Z,73.85
2018-10-02T04:58:18.063Z,73.44
2018-10-02T04:59:18.030Z,73.54
2018-10-02T05:00:18.020Z,72.92
2018-10-02T05:01:18.026Z,73.33
2018-10-02T05:02:18.011Z,74.32
2018-10-02T05:03:18.006Z,73.61
2018-10-02T05:04:17.976Z,73.71
2018-10-02T05:05:17.963Z,72.89
2018-10-02T05:06:17.952Z,73.44
2018-10-02T05:07:17.944Z,73.74
2018-10-02T05:08:18.036Z,73.85
2018-10-02T05:09:17.924Z,73.02
2018-10-02T05:10:17.911Z,74.43
2018-10-02T05:11:17.906Z,72.58
2018-10-02T05:12:17.885Z,72.78
2018-10-02T05:13:17.895Z,72.06
2018-10-02T05:14:17.937Z,73.85
2018-10-02T05:15:17.857Z,72.48
2018-10-02T05:16:17.904Z,72.20
2018-10-02T05:17:17.837Z,72.20
2018-10-02T05:18:17.851Z,71.89
2018-10-02T05:19:17.808Z,73.44
2018-10-02T05:20:17.799Z,72.61
2018-10-02T05:21:17.799Z,72.31
2018-10-02T05:22:17.777Z,71.69
2018-10-02T05:23:17.789Z,72.44
2018-10-02T05:24:17.757Z,71.89
2018-10-02T05:25:17.741Z,72.41
2018-10-02T05:26:17.766Z,74.15
2018-10-02T05:27:17.871Z,71.69
2018-10-02T05:28:17.728Z,70.87
2018-10-02T05:29:17.698Z,75.35
2018-10-02T05:30:17.690Z,72.03
2018-10-02T05:31:17.677Z,70.97
2018-10-02T05:32:17.712Z,70.97
2018-10-02T05:33:17.683Z,70.26
2018-10-02T05:34:17.640Z,70.87
2018-10-02T05:35:17.820Z,70.56
2018-10-02T05:36:17.638Z,70.15
2018-10-02T05:37:17.609Z,68.59
2018-10-02T05:38:17.618Z,69.30
2018-10-02T05:39:17.592Z,69.89
2018-10-02T05:40:17.575Z,68.76
2018-10-02T05:41:17.747Z,67.52
2018-10-02T05:42:17.563Z,68.27
2018-10-02T05:43:17.564Z,68.48
2018-10-02T05:44:17.532Z,68.59
2018-10-02T05:45:17.565Z,70.02
2018-10-02T05:46:17.517Z,68.86
2018-10-02T05:47:17.521Z,68.96
2018-10-02T05:48:17.507Z,68.55
2018-10-02T05:49:17.500Z,68.04
2018-10-02T05:50:17.465Z,68.04
2018-10-02T05:51:17.461Z,68.32
2018-10-02T05:52:17.442Z,69.34
2018-10-02T05:53:17.453Z,68.83
2018-10-02T05:54:17.458Z,66.27
2018-10-02T05:55:17.410Z,65.27
2018-10-02T05:56:17.409Z,66.19
2018-10-02T05:57:17.389Z,68.07
2018-10-02T05:58:17.423Z,68.62
2018-10-02T05:59:17.362Z,68.30
2018-10-02T06:00:17.352Z,68.62
2018-10-02T06:01:17.353Z,68.21
2018-10-02T06:02:17.330Z,67.00
2018-10-02T06:03:17.340Z,68.24
2018-10-02T06:04:17.308Z,67.44
2018-10-02T06:05:17.298Z,70.29
2018-10-02T06:06:17.309Z,69.37
2018-10-02T06:07:17.273Z,69.67
2018-10-02T06:08:17.310Z,68.03
2018-10-02T06:09:17.250Z,68.96
2018-10-02T06:10:17.240Z,68.96
2018-10-02T06:11:17.229Z,68.34
2018-10-02T06:12:17.222Z,68.24
2018-10-02T06:13:17.220Z,69.26
2018-10-02T06:14:17.218Z,67.52
2018-10-02T06:15:17.186Z,68.65
2018-10-02T06:16:17.173Z,69.88
2018-10-02T06:17:17.164Z,67.59
2018-10-02T06:18:17.183Z,69.54
2018-10-02T06:19:17.164Z,67.69
2018-10-02T06:20:17.136Z,68.62
2018-10-02T06:21:17.118Z,68.00
2018-10-02T06:22:17.108Z,68.51
2018-10-02T06:23:17.095Z,68.10
2018-10-02T06:24:17.106Z,68.92
2018-10-02T06:25:17.075Z,68.10
2018-10-02T06:26:17.070Z,68.62
2018-10-02T06:27:17.053Z,69.54
2018-10-02T06:28:17.043Z,68.41
2018-10-02T06:29:17.052Z,67.69
2018-10-02T06:30:17.042Z,68.82
2018-10-02T06:31:17.006Z,68.72
2018-10-02T06:32:16.998Z,68.21
2018-10-02T06:33:17.025Z,68.41
2018-10-02T06:34:16.995Z,68.72
2018-10-02T06:35:16.973Z,68.30
2018-10-02T06:36:16.953Z,67.28
2018-10-02T06:37:16.994Z,67.59
2018-10-02T06:38:17.052Z,66.97
2018-10-02T06:39:16.961Z,67.49
2018-10-02T06:40:16.934Z,67.79
2018-10-02T06:41:16.909Z,67.69
2018-10-02T06:42:16.904Z,68.51
2018-10-02T06:43:16.874Z,67.46
2018-10-02T06:44:16.911Z,67.14
2018-10-02T06:45:16.882Z,67.18
2018-10-02T06:46:16.843Z,67.14
2018-10-02T06:47:16.830Z,66.84
2018-10-02T06:48:16.847Z,67.59
2018-10-02T06:49:16.836Z,66.87
2018-10-02T06:50:16.807Z,68.92
2018-10-02T06:51:16.896Z,69.33
2018-10-02T06:52:17.016Z,70.67
2018-10-02T06:53:16.761Z,69.54
2018-10-02T06:54:16.773Z,69.02
2018-10-02T06:55:16.834Z,69.64
2018-10-02T06:56:16.731Z,70.15
2018-10-02T06:57:16.789Z,71.11
2018-10-02T06:58:16.709Z,71.83
2018-10-02T06:59:16.719Z,71.52
2018-10-02T07:00:16.688Z,73.27
2018-10-02T07:01:16.677Z,74.08
2018-10-02T07:02:16.660Z,71.83
2018-10-02T07:03:16.660Z,73.06
2018-10-02T07:04:16.669Z,75.11
2018-10-02T07:05:16.631Z,74.12
2018-10-02T07:06:16.632Z,73.40
2018-10-02T07:07:16.611Z,74.02
2018-10-02T07:08:16.600Z,73.40
2018-10-02T07:09:16.609Z,76.17
2018-10-02T07:10:16.601Z,76.68
2018-10-02T07:11:16.561Z,75.97
2018-10-02T07:12:16.552Z,78.02
2018-10-02T07:13:16.538Z,77.30
2018-10-02T07:14:16.549Z,75.15
2018-10-02T07:15:16.517Z,74.74
2018-10-02T07:16:16.505Z,75.80
2018-10-02T07:17:16.524Z,74.67
2018-10-02T07:18:16.486Z,74.63
2018-10-02T07:19:17.063Z,74.53
2018-10-02T07:20:16.463Z,75.29
2018-10-02T07:21:16.506Z,74.63
2018-10-02T07:22:16.461Z,74.43
2018-10-02T07:23:16.435Z,74.98
2018-10-02T07:24:16.461Z,74.02
2018-10-02T07:25:16.415Z,74.84
2018-10-02T07:26:16.419Z,75.66
2018-10-02T07:27:16.594Z,73.81
2018-10-02T07:28:16.391Z,73.81
2018-10-02T07:29:16.389Z,74.32
2018-10-02T07:30:16.351Z,75.11
2018-10-02T07:31:16.357Z,73.78
2018-10-02T07:32:16.327Z,74.32
2018-10-02T07:33:16.328Z,74.43
2018-10-02T07:34:16.334Z,75.97
2018-10-02T07:35:16.342Z,75.25
2018-10-02T07:36:16.427Z,74.53
2018-10-02T07:37:16.352Z,76.07
2018-10-02T07:38:16.273Z,74.84
2018-10-02T07:39:16.301Z,74.63
2018-10-02T07:40:16.255Z,74.70
2018-10-02T07:41:16.236Z,74.80
2018-10-02T07:42:16.265Z,72.75
2018-10-02T07:43:16.211Z,73.36
2018-10-02T07:44:16.216Z,73.61
2018-10-02T07:45:16.231Z,73.16
2018-10-02T07:46:16.242Z,72.55
2018-10-02T07:47:16.208Z,72.34
2018-10-02T07:48:16.164Z,72.55
2018-10-02T07:49:16.201Z,72.51
2018-10-02T07:50:16.134Z,72.10
2018-10-02T07:51:16.134Z,72.20
2018-10-02T07:52:16.120Z,71.42
2018-10-02T07:53:16.093Z,71.48
2018-10-02T07:54:16.084Z,72.10
2018-10-02T07:55:16.095Z,71.83
2018-10-02T07:56:16.065Z,72.31
2018-10-02T07:57:16.050Z,72.82
2018-10-02T07:58:16.061Z,72.20
2018-10-02T07:59:16.039Z,71.28
2018-10-02T08:00:16.044Z,71.48
2018-10-02T08:01:16.038Z,71.97
2018-10-02T08:02:15.997Z,71.80
2018-10-02T08:03:15.986Z,70.97
2018-10-02T08:04:15.973Z,70.97
2018-10-02T08:05:16.073Z,72.17
2018-10-02T08:06:15.951Z,72.38
2018-10-02T08:07:15.963Z,71.66
2018-10-02T08:08:15.959Z,71.66
2018-10-02T08:09:15.967Z,70.94
2018-10-02T08:10:15.940Z,72.07
2018-10-02T08:11:15.906Z,70.64
2018-10-02T08:12:16.004Z,70.84
2018-10-02T08:13:15.878Z,70.53
2018-10-02T08:14:15.886Z,70.32
2018-10-02T08:15:15.925Z,70.64
2018-10-02T08:16:15.863Z,70.84
2018-10-02T08:17:15.849Z,70.32
2018-10-02T08:18:15.840Z,70.94
2018-10-02T08:19:15.816Z,70.94
2018-10-02T08:20:15.837Z,70.53
2018-10-02T08:21:15.823Z,70.94
2018-10-02T08:22:15.775Z,70.73
2018-10-02T08:23:15.775Z,70.64
2018-10-02T08:24:15.759Z,71.66
2018-10-02T08:25:15.785Z,72.17
2018-10-02T08:26:15.740Z,71.25
2018-10-02T08:27:15.924Z,70.22
2018-10-02T08:28:15.705Z,71.25
2018-10-02T08:29:15.704Z,71.25
2018-10-02T08:30:15.821Z,70.73
2018-10-02T08:31:15.781Z,69.92
2018-10-02T08:32:15.661Z,71.66
2018-10-02T08:33:15.736Z,70.67
2018-10-02T08:34:16.336Z,70.94
2018-10-02T08:35:15.946Z,71.08
2018-10-02T08:36:15.781Z,71.08
2018-10-02T08:37:15.647Z,71.66
2018-10-02T08:38:15.594Z,70.84
2018-10-02T08:39:15.595Z,71.76
2018-10-02T08:40:15.597Z,70.91
2018-10-02T08:41:15.579Z,70.32
2018-10-02T08:42:15.557Z,71.01
2018-10-02T08:43:15.592Z,70.50
2018-10-02T08:44:15.532Z,71.11
2018-10-02T08:45:15.558Z,71.93
2018-10-02T08:46:15.546Z,71.73
2018-10-02T08:47:15.504Z,71.76
2018-10-02T08:48:15.510Z,72.38
2018-10-02T08:49:15.532Z,72.17
2018-10-02T08:50:15.488Z,72.65
2018-10-02T08:51:15.457Z,71.52
2018-10-02T08:52:15.712Z,70.91
2018-10-02T08:53:15.453Z,71.52
2018-10-02T08:54:15.420Z,70.91
2018-10-02T08:55:15.436Z,71.42
2018-10-02T08:56:15.445Z,71.73
2018-10-02T08:57:15.397Z,71.83
2018-10-02T08:58:15.392Z,72.86
2018-10-02T08:59:15.409Z,74.08
2018-10-02T09:00:15.383Z,73.68
2018-10-02T09:01:15.345Z,74.90
2018-10-02T09:02:15.357Z,74.29
2018-10-02T09:03:15.383Z,75.01
2018-10-02T09:04:15.315Z,74.70
2018-10-02T09:05:15.343Z,74.49
2018-10-02T09:06:15.287Z,75.56
2018-10-02T09:07:15.276Z,75.15
2018-10-02T09:08:15.273Z,76.27
2018-10-02T09:09:15.314Z,76.27
2018-10-02T09:10:15.271Z,77.81
2018-10-02T09:11:15.235Z,76.07
2018-10-02T09:12:15.253Z,77.81
2018-10-02T09:13:15.209Z,76.89
2018-10-02T09:14:15.200Z,77.71
2018-10-02T09:15:15.217Z,78.42
2018-10-02T09:16:15.253Z,77.81
2018-10-02T09:17:15.168Z,77.50
2018-10-02T09:18:15.163Z,78.74
2018-10-02T09:19:15.138Z,77.47
2018-10-02T09:20:15.154Z,77.81
2018-10-02T09:21:15.130Z,77.91
2018-10-02T09:22:15.135Z,77.91
2018-10-02T09:23:15.097Z,78.94
2018-10-02T09:24:15.096Z,77.87
2018-10-02T09:25:15.112Z,77.36
2018-10-02T09:26:15.070Z,78.59
2018-10-02T09:27:15.070Z,78.45
2018-10-02T09:28:15.051Z,79.82
2018-10-02T09:29:15.034Z,79.38
2018-10-02T09:30:15.109Z,78.15
2018-10-02T09:31:15.135Z,78.76
2018-10-02T09:32:15.027Z,77.84
2018-10-02T09:33:14.988Z,76.64
2018-10-02T09:34:14.980Z,76.61
2018-10-02T09:35:15.003Z,77.05
2018-10-02T09:36:14.980Z,77.70
2018-10-02T09:37:15.128Z,78.01
2018-10-02T09:38:15.047Z,77.60
2018-10-02T09:39:14.920Z,77.87
2018-10-02T09:40:14.907Z,78.49
2018-10-02T09:41:14.925Z,78.17
2018-10-02T09:42:14.887Z,77.39
2018-10-02T09:43:14.883Z,77.60
2018-10-02T09:44:14.887Z,80.36
2018-10-02T09:45:14.876Z,80.88
2018-10-02T09:46:14.858Z,79.24
2018-10-02T09:47:14.834Z,80.81
2018-10-02T09:48:15.021Z,80.91
2018-10-02T09:49:14.820Z,80.98
2018-10-02T09:50:14.798Z,81.29
2018-10-02T09:51:14.808Z,80.51
2018-10-02T09:52:14.784Z,80.81
2018-10-02T09:53:14.782Z,82.90
2018-10-02T09:54:14.750Z,83.41
2018-10-02T09:55:14.759Z,83.10
2018-10-02T09:56:14.748Z,83.31
2018-10-02T09:57:14.716Z,84.44
2018-10-02T09:58:14.709Z,85.39
2018-10-02T09:59:14.698Z,84.84
2018-10-02T10:00:14.685Z,86.38
2018-10-02T10:01:14.705Z,85.15
2018-10-02T10:02:14.668Z,84.84
2018-10-02T10:03:14.722Z,84.84
2018-10-02T10:04:14.742Z,85.25
2018-10-02T10:05:14.634Z,86.48
2018-10-02T10:06:14.648Z,85.97
2018-10-02T10:07:14.602Z,86.48
2018-10-02T10:08:14.608Z,86.58
2018-10-02T10:09:14.739Z,86.07
2018-10-02T10:10:14.604Z,86.63
2018-10-02T10:11:14.611Z,86.79
2018-10-02T10:12:14.574Z,86.99
2018-10-02T10:13:14.542Z,86.32
2018-10-02T10:14:14.524Z,88.23
2018-10-02T10:15:14.542Z,86.58
2018-10-02T10:16:14.530Z,87.14
2018-10-02T10:17:14.776Z,86.58
2018-10-02T10:18:14.480Z,88.23
2018-10-02T10:19:14.505Z,88.94
2018-10-02T10:20:14.463Z,88.84
2018-10-02T10:21:14.474Z,88.27
2018-10-02T10:22:14.443Z,89.15
2018-10-02T10:23:14.425Z,88.53
2018-10-02T10:24:14.439Z,87.30
2018-10-02T10:25:14.403Z,87.82
2018-10-02T10:26:14.416Z,87.92
2018-10-02T10:27:14.381Z,88.23
2018-10-02T10:28:14.369Z,88.70
2018-10-02T10:29:14.360Z,88.29
2018-10-02T10:30:14.349Z,88.39
2018-10-02T10:31:14.361Z,87.88
2018-10-02T10:32:14.423Z,88.59
2018-10-02T10:33:14.332Z,87.98
2018-10-02T10:34:14.326Z,87.37
2018-10-02T10:35:14.735Z,88.49
2018-10-02T10:36:14.316Z,88.14
2018-10-02T10:37:14.273Z,88.04
2018-10-02T10:38:14.286Z,87.37
2018-10-02T10:39:14.247Z,88.18
2018-10-02T10:40:14.319Z,88.39
2018-10-02T10:41:14.251Z,87.77
2018-10-02T10:42:14.220Z,88.59
2018-10-02T10:43:14.248Z,88.33
2018-10-02T10:44:14.217Z,88.80
2018-10-02T10:45:14.179Z,89.42
2018-10-02T10:46:14.195Z,88.43
2018-10-02T10:47:14.161Z,89.51
2018-10-02T10:48:14.146Z,88.39
2018-10-02T10:49:14.147Z,87.57
2018-10-02T10:50:14.199Z,87.73
2018-10-02T10:51:14.142Z,88.31
2018-10-02T10:52:14.126Z,87.32
2018-10-02T10:53:14.100Z,86.73
2018-10-02T10:54:14.088Z,86.22
2018-10-02T10:55:14.083Z,84.89
2018-10-02T10:56:14.115Z,86.88
2018-10-02T10:57:14.103Z,86.36
2018-10-02T10:58:14.105Z,86.57
2018-10-02T10:59:14.031Z,86.91
2018-10-02T11:00:14.029Z,88.00
2018-10-02T11:01:14.029Z,88.00
2018-10-02T11:02:14.001Z,87.63
2018-10-02T11:03:13.998Z,87.53
2018-10-02T11:04:13.973Z,88.65
2018-10-02T11:05:13.964Z,87.84
2018-10-02T11:06:14.017Z,88.14
2018-10-02T11:07:13.942Z,87.53
2018-10-02T11:08:13.933Z,87.63
2018-10-02T11:09:13.923Z,88.14
2018-10-02T11:10:13.905Z,87.84
2018-10-02T11:11:13.920Z,88.86
2018-10-02T11:12:13.923Z,88.35
2018-10-02T11:13:13.881Z,88.24
2018-10-02T11:14:13.896Z,88.35
2018-10-02T11:15:13.931Z,88.45
2018-10-02T11:16:13.881Z,89.17
2018-10-02T11:17:13.875Z,89.06
2018-10-02T11:18:13.830Z,88.56
2018-10-02T11:19:13.811Z,89.17
2018-10-02T11:20:13.807Z,89.27
2018-10-02T11:21:13.778Z,89.58
2018-10-02T11:22:13.865Z,89.78
2018-10-02T11:23:13.760Z,88.35
2018-10-02T11:24:13.830Z,88.62
2018-10-02T11:25:13.793Z,88.62
2018-10-02T11:26:13.785Z,88.92
2018-10-02T11:27:13.745Z,88.51
2018-10-02T11:28:13.714Z,88.56
2018-10-02T11:29:13.699Z,89.37
2018-10-02T11:30:13.768Z,88.76
2018-10-02T11:31:13.740Z,88.45
2018-10-02T11:32:13.683Z,88.45
2018-10-02T11:33:14.316Z,87.73
2018-10-02T11:34:13.667Z,87.94
2018-10-02T11:35:13.673Z,88.41
2018-10-02T11:36:13.631Z,88.76
2018-10-02T11:37:13.711Z,87.12
2018-10-02T11:38:13.632Z,86.98
2018-10-02T11:39:13.591Z,86.67
2018-10-02T11:40:13.579Z,88.31
2018-10-02T11:41:13.592Z,86.36
2018-10-02T11:42:13.597Z,86.05
2018-10-02T11:43:13.609Z,85.03
2018-10-02T11:44:13.657Z,85.34
2018-10-02T11:45:13.526Z,85.61
2018-10-02T11:46:13.516Z,85.10
2018-10-02T11:47:13.531Z,86.46
2018-10-02T11:48:13.497Z,86.77
2018-10-02T11:49:13.762Z,84.93
2018-10-02T11:50:13.505Z,86.05
2018-10-02T11:51:13.472Z,85.96
2018-10-02T11:52:13.462Z,85.71
2018-10-02T11:53:13.466Z,86.94
2018-10-02T11:54:13.450Z,85.96
2018-10-02T11:55:13.470Z,87.08
2018-10-02T11:56:13.405Z,85.55
2018-10-02T11:57:13.478Z,84.79
2018-10-02T11:58:13.380Z,85.64
2018-10-02T11:59:13.383Z,86.26
2018-10-02T12:00:14.355Z,85.96
2018-10-02T12:01:13.382Z,85.14
2018-10-02T12:02:13.372Z,86.02
2018-10-02T12:03:13.425Z,86.26
2018-10-02T12:04:13.318Z,86.22
2018-10-02T12:05:13.872Z,85.91
2018-10-02T12:06:13.292Z,84.17
2018-10-02T12:07:13.889Z,84.79
2018-10-02T12:08:13.268Z,84.89
2018-10-02T12:09:13.316Z,83.66
2018-10-02T12:10:13.266Z,84.38
2018-10-02T12:11:13.233Z,84.48
2018-10-02T12:12:13.260Z,83.42
2018-10-02T12:13:13.261Z,84.89
2018-10-02T12:14:13.306Z,84.79
2018-10-02T12:15:13.276Z,85.81
2018-10-02T12:16:13.174Z,84.79
2018-10-02T12:17:13.188Z,83.15
2018-10-02T12:18:13.170Z,84.03
2018-10-02T12:19:13.143Z,84.03
2018-10-02T12:20:13.135Z,82.60
2018-10-02T12:21:13.147Z,81.79
2018-10-02T12:22:13.136Z,83.11
2018-10-02T12:23:13.116Z,82.40
2018-10-02T12:24:13.085Z,82.29
2018-10-02T12:25:13.074Z,83.11
2018-10-02T12:26:13.082Z,82.60
2018-10-02T12:27:13.086Z,83.11
2018-10-02T12:28:13.087Z,84.65
2018-10-02T12:29:13.041Z,83.42
2018-10-02T12:30:13.027Z,83.11
2018-10-02T12:31:13.095Z,83.32
2018-10-02T12:32:13.027Z,82.81
2018-10-02T12:33:12.989Z,83.01
2018-10-02T12:34:13.017Z,84.03
2018-10-02T12:35:12.964Z,83.22
2018-10-02T12:36:12.955Z,83.18
2018-10-02T12:37:12.957Z,82.77
2018-10-02T12:38:12.941Z,83.11
2018-10-02T12:39:12.988Z,82.36
2018-10-02T12:40:12.934Z,82.05
2018-10-02T12:41:12.898Z,82.56
2018-10-02T12:42:12.915Z,82.26
2018-10-02T12:43:12.876Z,82.36
2018-10-02T12:44:12.864Z,82.87
2018-10-02T12:45:12.847Z,82.56
2018-10-02T12:46:12.912Z,83.18
2018-10-02T12:47:13.313Z,83.18
2018-10-02T12:48:12.820Z,82.67
2018-10-02T12:49:12.807Z,82.22
2018-10-02T12:50:12.838Z,82.22
2018-10-02T12:51:12.788Z,82.12
2018-10-02T12:52:12.865Z,82.53